sensor_id;sensor_type;location;lat;lon;timestamp;P1;durP1;ratioP1;P2;durP2;ratioP2
11911;SDS011;6016;41.928;25.556;2022-09-04T00:02:37;2.28;;;1.90;;
11911;SDS011;6016;41.928;25.556;2022-09-04T00:05:23;2.13;;;1.90;;
11911;SDS011;6016;41.928;25.556;2022-09-04T00:08:00;2.90;;;1.98;;
11911;SDS011;6016;41.928;25.556;2022-09-04T00:10:41;2.10;;;1.85;;
11911;SDS011;6016;41.928;25.556;2022-09-04T00:13:14;4.40;;;2.05;;
11911;SDS011;6016;41.928;25.556;2022-09-04T00:15:47;2.50;;;1.88;;
11911;SDS011;6016;41.928;25.556;2022-09-04T00:18:22;2.10;;;1.90;;
11911;SDS011;6016;41.928;25.556;2022-09-04T00:20:55;2.20;;;2.00;;
11911;SDS011;6016;41.928;25.556;2022-09-04T00:23:28;2.05;;;1.85;;
11911;SDS011;6016;41.928;25.556;2022-09-04T00:26:05;2.38;;;2.10;;
11911;SDS011;6016;41.928;25.556;2022-09-04T00:31:09;3.45;;;1.83;;
11911;SDS011;6016;41.928;25.556;2022-09-04T00:33:45;2.20;;;1.77;;
11911;SDS011;6016;41.928;25.556;2022-09-04T00:36:20;3.05;;;1.90;;
11911;SDS011;6016;41.928;25.556;2022-09-04T00:38:50;2.08;;;1.88;;
11911;SDS011;6016;41.928;25.556;2022-09-04T00:41:23;2.00;;;1.80;;
11911;SDS011;6016;41.928;25.556;2022-09-04T00:44:01;2.72;;;2.10;;
11911;SDS011;6016;41.928;25.556;2022-09-04T00:46:41;3.78;;;2.00;;
11911;SDS011;6016;41.928;25.556;2022-09-04T00:52:18;2.75;;;2.40;;
11911;SDS011;6016;41.928;25.556;2022-09-04T00:57:48;3.72;;;2.40;;
11911;SDS011;6016;41.928;25.556;2022-09-04T01:00:25;2.47;;;2.10;;
11911;SDS011;6016;41.928;25.556;2022-09-04T01:06:10;4.35;;;2.40;;
11911;SDS011;6016;41.928;25.556;2022-09-04T01:08:46;3.72;;;2.22;;
11911;SDS011;6016;41.928;25.556;2022-09-04T01:11:26;3.65;;;2.28;;
11911;SDS011;6016;41.928;25.556;2022-09-04T01:14:04;3.78;;;2.30;;
11911;SDS011;6016;41.928;25.556;2022-09-04T01:16:40;2.40;;;2.20;;
11911;SDS011;6016;41.928;25.556;2022-09-04T01:19:14;3.13;;;2.55;;
11911;SDS011;6016;41.928;25.556;2022-09-04T01:22:06;2.80;;;2.50;;
11911;SDS011;6016;41.928;25.556;2022-09-04T01:24:53;3.33;;;2.45;;
11911;SDS011;6016;41.928;25.556;2022-09-04T01:27:31;4.25;;;2.58;;
11911;SDS011;6016;41.928;25.556;2022-09-04T01:30:07;3.72;;;2.50;;
11911;SDS011;6016;41.928;25.556;2022-09-04T01:32:47;4.35;;;2.40;;
11911;SDS011;6016;41.928;25.556;2022-09-04T01:35:26;2.53;;;2.20;;
11911;SDS011;6016;41.928;25.556;2022-09-04T01:38:01;2.47;;;2.17;;
11911;SDS011;6016;41.928;25.556;2022-09-04T01:40:38;3.80;;;2.40;;
11911;SDS011;6016;41.928;25.556;2022-09-04T01:43:11;3.17;;;2.50;;
11911;SDS011;6016;41.928;25.556;2022-09-04T01:48:17;2.60;;;2.40;;
11911;SDS011;6016;41.928;25.556;2022-09-04T01:50:52;3.80;;;2.42;;
11911;SDS011;6016;41.928;25.556;2022-09-04T01:53:29;2.50;;;2.30;;
11911;SDS011;6016;41.928;25.556;2022-09-04T01:56:05;4.35;;;2.17;;
11911;SDS011;6016;41.928;25.556;2022-09-04T01:58:40;2.40;;;2.17;;
11911;SDS011;6016;41.928;25.556;2022-09-04T02:01:13;3.80;;;2.05;;
11911;SDS011;6016;41.928;25.556;2022-09-04T02:03:50;2.83;;;2.22;;
11911;SDS011;6016;41.928;25.556;2022-09-04T02:06:28;2.80;;;2.30;;
11911;SDS011;6016;41.928;25.556;2022-09-04T02:09:01;2.25;;;2.05;;
11911;SDS011;6016;41.928;25.556;2022-09-04T02:11:39;2.83;;;2.40;;
11911;SDS011;6016;41.928;25.556;2022-09-04T02:14:25;2.80;;;2.25;;
11911;SDS011;6016;41.928;25.556;2022-09-04T02:17:08;2.50;;;2.30;;
11911;SDS011;6016;41.928;25.556;2022-09-04T02:19:45;3.08;;;2.38;;
11911;SDS011;6016;41.928;25.556;2022-09-04T02:22:26;2.55;;;2.20;;
11911;SDS011;6016;41.928;25.556;2022-09-04T02:25:04;2.40;;;2.10;;
11911;SDS011;6016;41.928;25.556;2022-09-04T02:27:40;2.50;;;2.30;;
11911;SDS011;6016;41.928;25.556;2022-09-04T02:30:18;2.90;;;2.35;;
11911;SDS011;6016;41.928;25.556;2022-09-04T02:32:47;3.35;;;2.08;;
11911;SDS011;6016;41.928;25.556;2022-09-04T02:35:22;3.33;;;2.47;;
11911;SDS011;6016;41.928;25.556;2022-09-04T02:38:01;4.07;;;2.47;;
11911;SDS011;6016;41.928;25.556;2022-09-04T02:40:40;2.83;;;2.50;;
11911;SDS011;6016;41.928;25.556;2022-09-04T02:43:18;4.45;;;2.30;;
11911;SDS011;6016;41.928;25.556;2022-09-04T02:45:59;3.00;;;2.38;;
11911;SDS011;6016;41.928;25.556;2022-09-04T02:48:32;3.55;;;2.30;;
11911;SDS011;6016;41.928;25.556;2022-09-04T02:51:17;3.08;;;2.33;;
11911;SDS011;6016;41.928;25.556;2022-09-04T02:53:50;2.88;;;2.42;;
11911;SDS011;6016;41.928;25.556;2022-09-04T02:56:26;4.45;;;2.33;;
11911;SDS011;6016;41.928;25.556;2022-09-04T02:59:14;2.05;;;1.83;;
11911;SDS011;6016;41.928;25.556;2022-09-04T03:01:52;3.35;;;2.25;;
11911;SDS011;6016;41.928;25.556;2022-09-04T03:04:24;3.08;;;2.60;;
11911;SDS011;6016;41.928;25.556;2022-09-04T03:06:59;2.53;;;2.25;;
11911;SDS011;6016;41.928;25.556;2022-09-04T03:09:35;4.25;;;2.60;;
11911;SDS011;6016;41.928;25.556;2022-09-04T03:12:11;3.38;;;2.40;;
11911;SDS011;6016;41.928;25.556;2022-09-04T03:14:53;3.38;;;2.30;;
11911;SDS011;6016;41.928;25.556;2022-09-04T03:17:31;3.03;;;2.40;;
11911;SDS011;6016;41.928;25.556;2022-09-04T03:20:03;5.53;;;2.53;;
11911;SDS011;6016;41.928;25.556;2022-09-04T03:22:38;3.50;;;2.63;;
11911;SDS011;6016;41.928;25.556;2022-09-04T03:25:24;2.95;;;2.40;;
11911;SDS011;6016;41.928;25.556;2022-09-04T03:28:01;3.30;;;2.30;;
11911;SDS011;6016;41.928;25.556;2022-09-04T03:30:28;4.60;;;2.33;;
11911;SDS011;6016;41.928;25.556;2022-09-04T03:33:02;4.33;;;2.53;;
11911;SDS011;6016;41.928;25.556;2022-09-04T03:35:38;3.50;;;2.40;;
11911;SDS011;6016;41.928;25.556;2022-09-04T03:38:13;4.43;;;2.65;;
11911;SDS011;6016;41.928;25.556;2022-09-04T03:40:49;2.80;;;2.33;;
11911;SDS011;6016;41.928;25.556;2022-09-04T03:43:38;2.95;;;2.50;;
11911;SDS011;6016;41.928;25.556;2022-09-04T03:46:22;3.80;;;3.00;;
11911;SDS011;6016;41.928;25.556;2022-09-04T03:49:06;3.85;;;3.25;;
11911;SDS011;6016;41.928;25.556;2022-09-04T03:51:46;4.60;;;3.78;;
11911;SDS011;6016;41.928;25.556;2022-09-04T03:57:02;4.45;;;3.33;;
11911;SDS011;6016;41.928;25.556;2022-09-04T03:59:40;4.60;;;3.75;;
11911;SDS011;6016;41.928;25.556;2022-09-04T04:07:57;5.88;;;3.00;;
11911;SDS011;6016;41.928;25.556;2022-09-04T04:10:49;4.65;;;3.15;;
11911;SDS011;6016;41.928;25.556;2022-09-04T04:13:43;3.63;;;3.03;;
11911;SDS011;6016;41.928;25.556;2022-09-04T04:16:42;4.60;;;2.80;;
11911;SDS011;6016;41.928;25.556;2022-09-04T04:19:27;3.40;;;3.00;;
11911;SDS011;6016;41.928;25.556;2022-09-04T04:22:14;3.85;;;3.00;;
11911;SDS011;6016;41.928;25.556;2022-09-04T04:25:00;3.40;;;2.72;;
11911;SDS011;6016;41.928;25.556;2022-09-04T04:27:42;3.55;;;3.08;;
11911;SDS011;6016;41.928;25.556;2022-09-04T04:30:17;3.92;;;2.97;;
11911;SDS011;6016;41.928;25.556;2022-09-04T04:33:06;4.00;;;3.10;;
11911;SDS011;6016;41.928;25.556;2022-09-04T04:35:42;3.60;;;3.00;;
11911;SDS011;6016;41.928;25.556;2022-09-04T04:38:18;3.80;;;3.30;;
11911;SDS011;6016;41.928;25.556;2022-09-04T04:41:15;4.00;;;3.00;;
11911;SDS011;6016;41.928;25.556;2022-09-04T04:43:57;3.38;;;2.78;;
11911;SDS011;6016;41.928;25.556;2022-09-04T04:46:33;4.53;;;3.00;;
11911;SDS011;6016;41.928;25.556;2022-09-04T04:49:21;4.50;;;2.92;;
11911;SDS011;6016;41.928;25.556;2022-09-04T04:52:20;4.78;;;2.83;;
11911;SDS011;6016;41.928;25.556;2022-09-04T04:54:59;3.90;;;3.33;;
11911;SDS011;6016;41.928;25.556;2022-09-04T04:57:33;4.20;;;2.90;;
11911;SDS011;6016;41.928;25.556;2022-09-04T05:00:10;4.38;;;3.28;;
11911;SDS011;6016;41.928;25.556;2022-09-04T05:02:44;4.20;;;3.17;;
11911;SDS011;6016;41.928;25.556;2022-09-04T05:05:19;4.10;;;3.67;;
11911;SDS011;6016;41.928;25.556;2022-09-04T05:07:55;4.72;;;3.47;;
11911;SDS011;6016;41.928;25.556;2022-09-04T05:10:30;4.85;;;3.28;;
11911;SDS011;6016;41.928;25.556;2022-09-04T05:13:07;5.03;;;3.97;;
11911;SDS011;6016;41.928;25.556;2022-09-04T05:15:42;5.57;;;3.40;;
11911;SDS011;6016;41.928;25.556;2022-09-04T05:18:15;5.13;;;3.30;;
11911;SDS011;6016;41.928;25.556;2022-09-04T05:20:51;4.55;;;2.97;;
11911;SDS011;6016;41.928;25.556;2022-09-04T05:23:25;4.03;;;3.33;;
11911;SDS011;6016;41.928;25.556;2022-09-04T05:26:01;4.10;;;3.20;;
11911;SDS011;6016;41.928;25.556;2022-09-04T05:28:40;3.95;;;2.53;;
11911;SDS011;6016;41.928;25.556;2022-09-04T05:31:16;3.30;;;2.83;;
11911;SDS011;6016;41.928;25.556;2022-09-04T05:33:52;4.20;;;3.38;;
11911;SDS011;6016;41.928;25.556;2022-09-04T05:36:27;4.57;;;3.40;;
11911;SDS011;6016;41.928;25.556;2022-09-04T05:39:07;3.47;;;3.00;;
11911;SDS011;6016;41.928;25.556;2022-09-04T05:41:48;4.53;;;3.13;;
11911;SDS011;6016;41.928;25.556;2022-09-04T05:44:29;3.78;;;2.75;;
11911;SDS011;6016;41.928;25.556;2022-09-04T05:47:05;4.70;;;3.60;;
11911;SDS011;6016;41.928;25.556;2022-09-04T05:52:44;4.05;;;3.03;;
11911;SDS011;6016;41.928;25.556;2022-09-04T05:55:45;6.03;;;3.80;;
11911;SDS011;6016;41.928;25.556;2022-09-04T05:58:32;3.92;;;3.35;;
11911;SDS011;6016;41.928;25.556;2022-09-04T06:01:16;5.03;;;3.60;;
11911;SDS011;6016;41.928;25.556;2022-09-04T06:04:03;4.43;;;3.10;;
11911;SDS011;6016;41.928;25.556;2022-09-04T06:06:52;4.95;;;3.33;;
11911;SDS011;6016;41.928;25.556;2022-09-04T06:09:35;5.13;;;3.22;;
11911;SDS011;6016;41.928;25.556;2022-09-04T06:12:17;6.28;;;3.53;;
11911;SDS011;6016;41.928;25.556;2022-09-04T06:15:12;5.78;;;3.25;;
11911;SDS011;6016;41.928;25.556;2022-09-04T06:17:47;3.92;;;3.10;;
11911;SDS011;6016;41.928;25.556;2022-09-04T06:23:31;3.83;;;3.03;;
11911;SDS011;6016;41.928;25.556;2022-09-04T06:26:16;3.78;;;2.55;;
11911;SDS011;6016;41.928;25.556;2022-09-04T06:28:57;4.25;;;3.08;;
11911;SDS011;6016;41.928;25.556;2022-09-04T06:32:05;5.70;;;2.60;;
11911;SDS011;6016;41.928;25.556;2022-09-04T06:34:48;3.67;;;2.72;;
11911;SDS011;6016;41.928;25.556;2022-09-04T06:37:27;4.32;;;3.08;;
11911;SDS011;6016;41.928;25.556;2022-09-04T06:40:11;4.82;;;2.78;;
11911;SDS011;6016;41.928;25.556;2022-09-04T06:42:56;3.85;;;2.88;;
11911;SDS011;6016;41.928;25.556;2022-09-04T06:45:37;3.50;;;2.70;;
11911;SDS011;6016;41.928;25.556;2022-09-04T06:48:20;3.00;;;2.70;;
11911;SDS011;6016;41.928;25.556;2022-09-04T06:50:56;3.60;;;2.60;;
11911;SDS011;6016;41.928;25.556;2022-09-04T06:53:37;4.00;;;2.92;;
11911;SDS011;6016;41.928;25.556;2022-09-04T06:59:06;3.05;;;2.75;;
11911;SDS011;6016;41.928;25.556;2022-09-04T07:01:51;3.10;;;2.65;;
11911;SDS011;6016;41.928;25.556;2022-09-04T07:04:35;3.90;;;2.88;;
11911;SDS011;6016;41.928;25.556;2022-09-04T07:07:14;3.00;;;2.70;;
11911;SDS011;6016;41.928;25.556;2022-09-04T07:09:53;4.50;;;2.75;;
11911;SDS011;6016;41.928;25.556;2022-09-04T07:12:37;3.25;;;2.72;;
11911;SDS011;6016;41.928;25.556;2022-09-04T07:18:15;3.10;;;2.40;;
11911;SDS011;6016;41.928;25.556;2022-09-04T07:21:00;2.60;;;2.40;;
11911;SDS011;6016;41.928;25.556;2022-09-04T07:23:35;2.63;;;2.40;;
11911;SDS011;6016;41.928;25.556;2022-09-04T07:26:11;2.60;;;2.20;;
11911;SDS011;6016;41.928;25.556;2022-09-04T07:32:00;2.35;;;2.00;;
11911;SDS011;6016;41.928;25.556;2022-09-04T07:34:36;2.78;;;1.95;;
11911;SDS011;6016;41.928;25.556;2022-09-04T07:37:17;2.30;;;2.10;;
11911;SDS011;6016;41.928;25.556;2022-09-04T07:39:56;2.42;;;2.00;;
11911;SDS011;6016;41.928;25.556;2022-09-04T07:42:40;2.55;;;1.98;;
11911;SDS011;6016;41.928;25.556;2022-09-04T07:45:16;2.80;;;2.10;;
11911;SDS011;6016;41.928;25.556;2022-09-04T07:48:01;3.40;;;2.33;;
11911;SDS011;6016;41.928;25.556;2022-09-04T07:50:35;3.65;;;2.40;;
11911;SDS011;6016;41.928;25.556;2022-09-04T07:53:12;2.92;;;2.20;;
11911;SDS011;6016;41.928;25.556;2022-09-04T07:55:48;5.50;;;2.63;;
11911;SDS011;6016;41.928;25.556;2022-09-04T07:58:36;2.13;;;1.92;;
11911;SDS011;6016;41.928;25.556;2022-09-04T08:07:11;2.85;;;2.10;;
11911;SDS011;6016;41.928;25.556;2022-09-04T08:12:49;3.00;;;2.00;;
11911;SDS011;6016;41.928;25.556;2022-09-04T08:15:34;3.08;;;2.10;;
11911;SDS011;6016;41.928;25.556;2022-09-04T08:18:17;3.15;;;1.98;;
11911;SDS011;6016;41.928;25.556;2022-09-04T08:20:58;3.00;;;2.10;;
11911;SDS011;6016;41.928;25.556;2022-09-04T08:23:52;2.30;;;1.65;;
11911;SDS011;6016;41.928;25.556;2022-09-04T08:26:32;2.20;;;2.00;;
11911;SDS011;6016;41.928;25.556;2022-09-04T08:32:08;2.35;;;2.05;;
11911;SDS011;6016;41.928;25.556;2022-09-04T08:34:51;2.60;;;2.00;;
11911;SDS011;6016;41.928;25.556;2022-09-04T08:37:37;3.75;;;2.20;;
11911;SDS011;6016;41.928;25.556;2022-09-04T08:40:18;2.75;;;1.92;;
11911;SDS011;6016;41.928;25.556;2022-09-04T08:46:23;2.85;;;1.83;;
11911;SDS011;6016;41.928;25.556;2022-09-04T08:55:56;2.30;;;2.10;;
11911;SDS011;6016;41.928;25.556;2022-09-04T08:58:48;3.13;;;2.55;;
11911;SDS011;6016;41.928;25.556;2022-09-04T09:01:43;3.45;;;2.08;;
11911;SDS011;6016;41.928;25.556;2022-09-04T09:10:36;4.63;;;3.00;;
11911;SDS011;6016;41.928;25.556;2022-09-04T09:16:21;3.40;;;2.70;;
11911;SDS011;6016;41.928;25.556;2022-09-04T09:19:03;4.60;;;3.25;;
11911;SDS011;6016;41.928;25.556;2022-09-04T09:21:41;5.43;;;3.13;;
11911;SDS011;6016;41.928;25.556;2022-09-04T09:27:29;6.45;;;4.35;;
11911;SDS011;6016;41.928;25.556;2022-09-04T09:30:13;5.35;;;4.07;;
11911;SDS011;6016;41.928;25.556;2022-09-04T09:32:52;4.70;;;3.78;;
11911;SDS011;6016;41.928;25.556;2022-09-04T09:35:48;7.90;;;4.15;;
11911;SDS011;6016;41.928;25.556;2022-09-04T09:38:58;7.25;;;4.78;;
11911;SDS011;6016;41.928;25.556;2022-09-04T09:41:48;5.93;;;4.28;;
11911;SDS011;6016;41.928;25.556;2022-09-04T09:44:50;5.70;;;4.50;;
11911;SDS011;6016;41.928;25.556;2022-09-04T09:56:49;4.90;;;3.88;;
11911;SDS011;6016;41.928;25.556;2022-09-04T09:59:46;7.70;;;4.57;;
11911;SDS011;6016;41.928;25.556;2022-09-04T10:05:49;5.25;;;4.53;;
11911;SDS011;6016;41.928;25.556;2022-09-04T10:08:40;5.38;;;4.10;;
11911;SDS011;6016;41.928;25.556;2022-09-04T10:11:44;6.35;;;4.50;;
11911;SDS011;6016;41.928;25.556;2022-09-04T10:14:40;6.55;;;4.72;;
11911;SDS011;6016;41.928;25.556;2022-09-04T10:17:45;4.50;;;3.90;;
11911;SDS011;6016;41.928;25.556;2022-09-04T10:23:56;5.63;;;4.13;;
11911;SDS011;6016;41.928;25.556;2022-09-04T10:30:05;6.47;;;4.55;;
11911;SDS011;6016;41.928;25.556;2022-09-04T10:35:40;5.13;;;4.40;;
11911;SDS011;6016;41.928;25.556;2022-09-04T10:38:27;5.55;;;4.18;;
11911;SDS011;6016;41.928;25.556;2022-09-04T10:41:28;4.95;;;3.83;;
11911;SDS011;6016;41.928;25.556;2022-09-04T10:44:21;4.93;;;4.43;;
11911;SDS011;6016;41.928;25.556;2022-09-04T10:47:01;7.05;;;4.90;;
11911;SDS011;6016;41.928;25.556;2022-09-04T10:52:41;8.18;;;5.32;;
11911;SDS011;6016;41.928;25.556;2022-09-04T10:55:36;6.20;;;5.15;;
11911;SDS011;6016;41.928;25.556;2022-09-04T10:58:28;7.88;;;5.40;;
11911;SDS011;6016;41.928;25.556;2022-09-04T11:01:24;7.65;;;5.38;;
11911;SDS011;6016;41.928;25.556;2022-09-04T11:04:13;7.85;;;4.88;;
11911;SDS011;6016;41.928;25.556;2022-09-04T11:07:02;6.40;;;4.70;;
11911;SDS011;6016;41.928;25.556;2022-09-04T11:10:00;7.47;;;5.18;;
11911;SDS011;6016;41.928;25.556;2022-09-04T11:12:57;6.30;;;5.18;;
11911;SDS011;6016;41.928;25.556;2022-09-04T11:15:58;7.47;;;4.95;;
11911;SDS011;6016;41.928;25.556;2022-09-04T11:28:05;8.48;;;5.25;;
11911;SDS011;6016;41.928;25.556;2022-09-04T11:30:52;7.68;;;5.40;;
11911;SDS011;6016;41.928;25.556;2022-09-04T11:36:47;8.02;;;5.45;;
11911;SDS011;6016;41.928;25.556;2022-09-04T11:42:38;8.48;;;5.95;;
11911;SDS011;6016;41.928;25.556;2022-09-04T11:51:30;7.38;;;5.80;;
11911;SDS011;6016;41.928;25.556;2022-09-04T11:57:28;6.78;;;5.82;;
11911;SDS011;6016;41.928;25.556;2022-09-04T12:00:07;6.40;;;5.50;;
11911;SDS011;6016;41.928;25.556;2022-09-04T12:05:58;6.35;;;5.63;;
11911;SDS011;6016;41.928;25.556;2022-09-04T12:11:39;7.72;;;5.45;;
11911;SDS011;6016;41.928;25.556;2022-09-04T12:14:31;5.32;;;4.82;;
11911;SDS011;6016;41.928;25.556;2022-09-04T12:17:19;6.03;;;5.20;;
11911;SDS011;6016;41.928;25.556;2022-09-04T12:20:07;8.50;;;5.53;;
11911;SDS011;6016;41.928;25.556;2022-09-04T12:23:11;6.43;;;5.40;;
11911;SDS011;6016;41.928;25.556;2022-09-04T12:28:57;5.50;;;4.90;;
11911;SDS011;6016;41.928;25.556;2022-09-04T12:31:42;6.10;;;4.85;;
11911;SDS011;6016;41.928;25.556;2022-09-04T12:37:49;5.72;;;5.03;;
11911;SDS011;6016;41.928;25.556;2022-09-04T12:40:30;5.25;;;4.35;;
11911;SDS011;6016;41.928;25.556;2022-09-04T12:43:02;5.88;;;4.90;;
11911;SDS011;6016;41.928;25.556;2022-09-04T12:45:42;5.68;;;4.40;;
11911;SDS011;6016;41.928;25.556;2022-09-04T12:48:17;5.25;;;4.53;;
11911;SDS011;6016;41.928;25.556;2022-09-04T12:50:58;5.82;;;4.63;;
11911;SDS011;6016;41.928;25.556;2022-09-04T12:56:43;4.70;;;4.20;;
11911;SDS011;6016;41.928;25.556;2022-09-04T12:59:27;7.43;;;6.28;;
11911;SDS011;6016;41.928;25.556;2022-09-04T13:02:04;8.52;;;5.25;;
11911;SDS011;6016;41.928;25.556;2022-09-04T13:04:42;7.97;;;4.72;;
11911;SDS011;6016;41.928;25.556;2022-09-04T13:07:25;9.90;;;4.47;;
11911;SDS011;6016;41.928;25.556;2022-09-04T13:10:09;8.90;;;4.43;;
11911;SDS011;6016;41.928;25.556;2022-09-04T13:12:50;5.50;;;4.43;;
11911;SDS011;6016;41.928;25.556;2022-09-04T13:15:28;5.90;;;4.28;;
11911;SDS011;6016;41.928;25.556;2022-09-04T13:18:08;6.82;;;4.47;;
11911;SDS011;6016;41.928;25.556;2022-09-04T13:20:47;7.30;;;4.70;;
11911;SDS011;6016;41.928;25.556;2022-09-04T13:23:26;6.97;;;4.32;;
11911;SDS011;6016;41.928;25.556;2022-09-04T13:26:09;5.15;;;4.38;;
11911;SDS011;6016;41.928;25.556;2022-09-04T13:28:50;7.00;;;4.45;;
11911;SDS011;6016;41.928;25.556;2022-09-04T13:31:34;6.57;;;4.35;;
11911;SDS011;6016;41.928;25.556;2022-09-04T13:34:15;10.48;;;4.85;;
11911;SDS011;6016;41.928;25.556;2022-09-04T13:36:52;5.50;;;4.35;;
11911;SDS011;6016;41.928;25.556;2022-09-04T13:45:38;9.60;;;4.53;;
11911;SDS011;6016;41.928;25.556;2022-09-04T13:48:08;7.63;;;4.28;;
11911;SDS011;6016;41.928;25.556;2022-09-04T13:50:40;6.38;;;4.18;;
11911;SDS011;6016;41.928;25.556;2022-09-04T13:53:10;8.55;;;4.75;;
11911;SDS011;6016;41.928;25.556;2022-09-04T13:55:44;6.28;;;4.22;;
11911;SDS011;6016;41.928;25.556;2022-09-04T13:58:16;5.97;;;4.90;;
11911;SDS011;6016;41.928;25.556;2022-09-04T14:00:45;4.68;;;4.18;;
11911;SDS011;6016;41.928;25.556;2022-09-04T14:03:20;5.38;;;4.53;;
11911;SDS011;6016;41.928;25.556;2022-09-04T14:05:55;5.00;;;3.83;;
11911;SDS011;6016;41.928;25.556;2022-09-04T14:08:25;5.10;;;4.00;;
11911;SDS011;6016;41.928;25.556;2022-09-04T14:17:13;5.53;;;4.15;;
11911;SDS011;6016;41.928;25.556;2022-09-04T14:19:53;5.43;;;3.78;;
11911;SDS011;6016;41.928;25.556;2022-09-04T14:22:38;12.00;;;9.27;;
11911;SDS011;6016;41.928;25.556;2022-09-04T14:25:18;17.67;;;14.95;;
11911;SDS011;6016;41.928;25.556;2022-09-04T14:27:56;10.98;;;7.78;;
11911;SDS011;6016;41.928;25.556;2022-09-04T14:30:29;8.43;;;6.78;;
11911;SDS011;6016;41.928;25.556;2022-09-04T14:33:03;7.53;;;6.30;;
11911;SDS011;6016;41.928;25.556;2022-09-04T14:35:45;7.85;;;5.55;;
11911;SDS011;6016;41.928;25.556;2022-09-04T14:41:59;7.60;;;4.63;;
11911;SDS011;6016;41.928;25.556;2022-09-04T14:44:46;5.40;;;4.53;;
11911;SDS011;6016;41.928;25.556;2022-09-04T14:47:29;5.00;;;3.90;;
11911;SDS011;6016;41.928;25.556;2022-09-04T14:52:48;10.63;;;7.50;;
11911;SDS011;6016;41.928;25.556;2022-09-04T14:55:23;4.72;;;4.05;;
11911;SDS011;6016;41.928;25.556;2022-09-04T14:57:55;13.98;;;6.72;;
11911;SDS011;6016;41.928;25.556;2022-09-04T15:00:29;5.82;;;4.28;;
11911;SDS011;6016;41.928;25.556;2022-09-04T15:03:04;4.90;;;3.83;;
11911;SDS011;6016;41.928;25.556;2022-09-04T15:05:42;5.75;;;4.10;;
11911;SDS011;6016;41.928;25.556;2022-09-04T15:08:24;4.65;;;3.60;;
11911;SDS011;6016;41.928;25.556;2022-09-04T15:10:53;3.40;;;3.05;;
11911;SDS011;6016;41.928;25.556;2022-09-04T15:13:36;5.10;;;3.40;;
11911;SDS011;6016;41.928;25.556;2022-09-04T15:16:14;4.30;;;2.90;;
11911;SDS011;6016;41.928;25.556;2022-09-04T15:21:43;4.47;;;2.58;;
11911;SDS011;6016;41.928;25.556;2022-09-04T15:24:16;4.03;;;2.90;;
11911;SDS011;6016;41.928;25.556;2022-09-04T15:26:52;5.20;;;3.10;;
11911;SDS011;6016;41.928;25.556;2022-09-04T15:29:30;4.70;;;2.70;;
11911;SDS011;6016;41.928;25.556;2022-09-04T15:32:04;2.90;;;2.53;;
11911;SDS011;6016;41.928;25.556;2022-09-04T15:34:34;3.65;;;2.53;;
11911;SDS011;6016;41.928;25.556;2022-09-04T15:37:09;3.30;;;3.00;;
11911;SDS011;6016;41.928;25.556;2022-09-04T15:39:43;4.10;;;2.80;;
11911;SDS011;6016;41.928;25.556;2022-09-04T15:45:08;6.25;;;3.88;;
11911;SDS011;6016;41.928;25.556;2022-09-04T15:47:45;4.40;;;3.63;;
11911;SDS011;6016;41.928;25.556;2022-09-04T15:50:32;7.28;;;3.60;;
11911;SDS011;6016;41.928;25.556;2022-09-04T15:53:11;6.85;;;3.85;;
11911;SDS011;6016;41.928;25.556;2022-09-04T15:55:48;8.63;;;4.03;;
11911;SDS011;6016;41.928;25.556;2022-09-04T15:58:34;6.25;;;3.67;;
11911;SDS011;6016;41.928;25.556;2022-09-04T16:01:11;6.80;;;4.03;;
11911;SDS011;6016;41.928;25.556;2022-09-04T16:03:46;6.07;;;3.67;;
11911;SDS011;6016;41.928;25.556;2022-09-04T16:06:22;5.22;;;3.47;;
11911;SDS011;6016;41.928;25.556;2022-09-04T16:08:55;6.15;;;3.20;;
11911;SDS011;6016;41.928;25.556;2022-09-04T16:11:27;4.70;;;3.08;;
11911;SDS011;6016;41.928;25.556;2022-09-04T16:14:00;4.53;;;2.80;;
11911;SDS011;6016;41.928;25.556;2022-09-04T16:16:33;3.37;;;2.73;;
11911;SDS011;6016;41.928;25.556;2022-09-04T16:19:18;3.13;;;2.60;;
11911;SDS011;6016;41.928;25.556;2022-09-04T16:21:57;5.00;;;3.17;;
11911;SDS011;6016;41.928;25.556;2022-09-04T16:24:32;3.40;;;2.78;;
11911;SDS011;6016;41.928;25.556;2022-09-04T16:27:05;4.78;;;2.90;;
11911;SDS011;6016;41.928;25.556;2022-09-04T16:29:34;3.95;;;2.50;;
11911;SDS011;6016;41.928;25.556;2022-09-04T16:32:04;4.32;;;3.08;;
11911;SDS011;6016;41.928;25.556;2022-09-04T16:34:37;4.55;;;3.10;;
11911;SDS011;6016;41.928;25.556;2022-09-04T16:37:14;4.13;;;3.05;;
11911;SDS011;6016;41.928;25.556;2022-09-04T16:39:49;6.35;;;3.17;;
11911;SDS011;6016;41.928;25.556;2022-09-04T16:42:27;4.95;;;3.40;;
11911;SDS011;6016;41.928;25.556;2022-09-04T16:45:03;6.25;;;3.13;;
11911;SDS011;6016;41.928;25.556;2022-09-04T16:47:37;3.72;;;3.13;;
11911;SDS011;6016;41.928;25.556;2022-09-04T16:50:11;4.18;;;3.08;;
11911;SDS011;6016;41.928;25.556;2022-09-04T16:52:55;4.70;;;3.45;;
11911;SDS011;6016;41.928;25.556;2022-09-04T16:55:29;5.07;;;3.20;;
11911;SDS011;6016;41.928;25.556;2022-09-04T16:58:10;6.25;;;3.30;;
11911;SDS011;6016;41.928;25.556;2022-09-04T17:00:50;4.45;;;3.33;;
11911;SDS011;6016;41.928;25.556;2022-09-04T17:03:27;5.75;;;2.90;;
11911;SDS011;6016;41.928;25.556;2022-09-04T17:06:05;4.82;;;3.20;;
11911;SDS011;6016;41.928;25.556;2022-09-04T17:08:44;5.85;;;3.15;;
11911;SDS011;6016;41.928;25.556;2022-09-04T17:11:16;5.72;;;3.22;;
11911;SDS011;6016;41.928;25.556;2022-09-04T17:13:49;6.70;;;3.40;;
11911;SDS011;6016;41.928;25.556;2022-09-04T17:16:23;4.15;;;3.47;;
11911;SDS011;6016;41.928;25.556;2022-09-04T17:18:56;5.70;;;3.58;;
11911;SDS011;6016;41.928;25.556;2022-09-04T17:21:24;4.93;;;3.45;;
11911;SDS011;6016;41.928;25.556;2022-09-04T17:24:15;5.93;;;3.70;;
11911;SDS011;6016;41.928;25.556;2022-09-04T17:26:48;5.18;;;3.50;;
11911;SDS011;6016;41.928;25.556;2022-09-04T17:29:22;4.63;;;3.55;;
11911;SDS011;6016;41.928;25.556;2022-09-04T17:31:52;3.63;;;3.15;;
11911;SDS011;6016;41.928;25.556;2022-09-04T17:34:24;6.63;;;3.50;;
11911;SDS011;6016;41.928;25.556;2022-09-04T17:37:12;3.28;;;2.88;;
11911;SDS011;6016;41.928;25.556;2022-09-04T17:39:52;6.22;;;3.33;;
11911;SDS011;6016;41.928;25.556;2022-09-04T17:42:27;3.83;;;3.08;;
11911;SDS011;6016;41.928;25.556;2022-09-04T17:44:59;4.90;;;3.03;;
11911;SDS011;6016;41.928;25.556;2022-09-04T17:47:42;3.30;;;2.95;;
11911;SDS011;6016;41.928;25.556;2022-09-04T17:50:12;3.42;;;3.08;;
11911;SDS011;6016;41.928;25.556;2022-09-04T17:52:53;4.95;;;3.28;;
11911;SDS011;6016;41.928;25.556;2022-09-04T17:55:24;4.45;;;3.20;;
11911;SDS011;6016;41.928;25.556;2022-09-04T17:58:01;4.05;;;3.20;;
11911;SDS011;6016;41.928;25.556;2022-09-04T18:00:51;5.80;;;2.95;;
11911;SDS011;6016;41.928;25.556;2022-09-04T18:03:48;4.80;;;3.08;;
11911;SDS011;6016;41.928;25.556;2022-09-04T18:06:42;4.30;;;3.20;;
11911;SDS011;6016;41.928;25.556;2022-09-04T18:09:18;5.78;;;3.05;;
11911;SDS011;6016;41.928;25.556;2022-09-04T18:11:52;5.00;;;3.20;;
11911;SDS011;6016;41.928;25.556;2022-09-04T18:14:30;5.68;;;3.22;;
11911;SDS011;6016;41.928;25.556;2022-09-04T18:17:06;7.03;;;3.42;;
11911;SDS011;6016;41.928;25.556;2022-09-04T18:19:39;6.63;;;3.38;;
11911;SDS011;6016;41.928;25.556;2022-09-04T18:22:20;3.88;;;3.17;;
11911;SDS011;6016;41.928;25.556;2022-09-04T18:24:52;6.75;;;3.80;;
11911;SDS011;6016;41.928;25.556;2022-09-04T18:27:37;5.28;;;3.58;;
11911;SDS011;6016;41.928;25.556;2022-09-04T18:34:15;5.85;;;3.30;;
11911;SDS011;6016;41.928;25.556;2022-09-04T18:37:53;5.57;;;3.85;;
11911;SDS011;6016;41.928;25.556;2022-09-04T18:40:43;5.43;;;3.50;;
11911;SDS011;6016;41.928;25.556;2022-09-04T18:43:54;5.57;;;3.35;;
11911;SDS011;6016;41.928;25.556;2022-09-04T18:47:13;3.95;;;3.40;;
11911;SDS011;6016;41.928;25.556;2022-09-04T18:53:35;4.00;;;3.45;;
11911;SDS011;6016;41.928;25.556;2022-09-04T18:57:04;8.13;;;4.13;;
11911;SDS011;6016;41.928;25.556;2022-09-04T19:10:14;7.60;;;4.07;;